Time;durP1;ratioP1;P1;durP2;ratioP2;P2;SDS_P1;SDS_P2;PMS_P1;PMS_P2;Temp;Humidity;BMP_temperature;BMP_pressure;BME280_temperature;BME280_humidity;BME280_pressure;Samples;Min_cycle;Max_cycle;Signal;HPM_P1;HPM_P2
2023/12/26 00:01:46;;;;;;;3.78;1.10;;;;;;;14.52;69.05;100505.47;5003370;28;123911;-76
2023/12/26 00:04:15;;;;;;;1.90;0.93;;;;;;;14.50;68.99;100512.69;5014002;28;123811;-76
2023/12/26 00:06:46;;;;;;;3.67;0.95;;;;;;;14.48;68.90;100498.59;5014033;28;109147;-75
2023/12/26 00:09:15;;;;;;;1.48;0.90;;;;;;;14.46;68.89;100500.53;5009182;28;108990;-76
2023/12/26 00:11:50;;;;;;;2.70;0.90;;;;;;;14.44;68.91;100496.25;5007324;28;124770;-75
2023/12/26 00:14:18;;;;;;;1.40;0.90;;;;;;;14.42;69.07;100507.03;4993779;28;123934;-75
2023/12/26 00:16:46;;;;;;;1.75;0.95;;;;;;;14.41;68.94;100502.66;5006168;28;109452;-76
2023/12/26 00:19:14;;;;;;;1.13;0.88;;;;;;;14.39;68.89;100488.56;5010237;28;108903;-75
2023/12/26 00:21:44;;;;;;;2.53;0.90;;;;;;;14.37;69.14;100495.81;4997857;28;124148;-76
2023/12/26 00:24:11;;;;;;;1.60;0.88;;;;;;;14.37;69.05;100502.00;5001011;28;123773;-76
2023/12/26 00:26:40;;;;;;;2.40;0.90;;;;;;;14.37;69.10;100501.13;5007726;28;109119;-75
2023/12/26 00:29:07;;;;;;;1.25;0.82;;;;;;;14.38;69.06;100497.53;5005843;28;109395;-75
2023/12/26 00:31:39;;;;;;;1.75;0.90;;;;;;;14.37;69.06;100490.47;5000964;28;124218;-75
2023/12/26 00:34:08;;;;;;;2.42;0.90;;;;;;;14.35;68.98;100492.38;5003460;28;123831;-76
2023/12/26 00:36:36;;;;;;;1.38;0.90;;;;;;;14.34;69.08;100501.34;5011326;28;108893;-76
2023/12/26 00:39:03;;;;;;;1.25;0.80;;;;;;;14.32;69.12;100497.94;5008197;28;108895;-75
2023/12/26 00:41:33;;;;;;;1.63;1.00;;;;;;;14.30;68.92;100489.19;5010123;28;123152;-75
2023/12/26 00:44:01;;;;;;;2.03;0.80;;;;;;;14.30;69.08;100484.72;5006735;28;123828;-76
2023/12/26 00:46:29;;;;;;;1.63;0.98;;;;;;;14.29;69.07;100495.47;5014463;28;108612;-76
2023/12/26 00:48:56;;;;;;;2.25;1.08;;;;;;;14.28;69.07;100501.75;5001245;28;108878;-75
2023/12/26 00:51:25;;;;;;;1.30;0.80;;;;;;;14.27;69.17;100502.72;5013466;28;123309;-75
2023/12/26 00:53:52;;;;;;;2.08;0.98;;;;;;;14.26;69.14;100506.31;5010096;28;123070;-75
2023/12/26 00:56:21;;;;;;;2.50;0.80;;;;;;;14.24;69.15;100521.53;5006655;28;109016;-75
2023/12/26 00:58:48;;;;;;;1.52;0.90;;;;;;;14.24;68.97;100526.88;5006935;28;109234;-74
2023/12/26 01:01:15;;;;;;;2.78;1.00;;;;;;;14.23;69.18;100522.53;5009287;28;123916;-74
2023/12/26 01:03:42;;;;;;;2.65;0.90;;;;;;;14.23;68.90;100517.19;5005657;28;124089;-74
2023/12/26 01:06:10;;;;;;;1.88;0.75;;;;;;;14.21;68.97;100518.13;5006781;28;109353;-74
2023/12/26 01:08:37;;;;;;;1.98;0.80;;;;;;;14.21;69.00;100526.13;5006541;28;108835;-74
2023/12/26 01:11:04;;;;;;;1.48;0.90;;;;;;;14.18;68.99;100531.69;5004951;28;124849;-74
2023/12/26 01:13:34;;;;;;;1.58;0.80;;;;;;;14.18;69.16;100523.69;5006655;28;123170;-75
2023/12/26 01:16:03;;;;;;;1.92;0.70;;;;;;;14.17;69.11;100527.28;5001377;28;111003;-75
2023/12/26 01:18:33;;;;;;;2.10;0.60;;;;;;;14.16;69.00;100520.25;4999683;28;109736;-75
2023/12/26 01:21:01;;;;;;;1.98;0.80;;;;;;;14.16;69.09;100525.56;5012006;28;124180;-74
2023/12/26 01:23:31;;;;;;;1.17;0.77;;;;;;;14.16;69.16;100520.25;5008940;28;124611;-75
2023/12/26 01:25:58;;;;;;;1.02;0.70;;;;;;;14.15;68.92;100529.19;4999959;28;108357;-74
2023/12/26 01:28:25;;;;;;;2.63;0.70;;;;;;;14.15;69.05;100534.53;5012729;28;109269;-74
2023/12/26 01:30:53;;;;;;;2.63;0.93;;;;;;;14.14;69.18;100537.28;4998064;28;123083;-74
2023/12/26 01:33:20;;;;;;;2.63;0.80;;;;;;;14.14;69.08;100532.81;4993823;28;123524;-74
2023/12/26 01:35:48;;;;;;;2.90;0.70;;;;;;;14.13;69.06;100541.75;4992520;28;109248;-74
2023/12/26 01:38:15;;;;;;;1.08;0.70;;;;;;;14.12;68.98;100550.69;4999444;28;109130;-74
2023/12/26 01:40:51;;;;;;;2.00;0.80;;;;;;;14.11;69.01;100557.00;5007547;28;124467;-74
2023/12/26 01:43:18;;;;;;;0.82;0.68;;;;;;;14.11;69.02;100546.34;5008439;28;124048;-75
2023/12/26 01:45:45;;;;;;;2.00;0.80;;;;;;;14.11;69.15;100543.66;4995990;28;109218;-74
2023/12/26 01:48:12;;;;;;;1.50;0.85;;;;;;;14.12;69.04;100556.03;4996628;28;108526;-74
2023/12/26 01:50:40;;;;;;;1.15;0.80;;;;;;;14.12;69.17;100550.69;4996851;28;123612;-73
2023/12/26 01:53:08;;;;;;;1.25;0.85;;;;;;;14.12;69.00;100556.03;5006889;28;123484;-74
2023/12/26 01:55:36;;;;;;;1.27;0.80;;;;;;;14.11;69.03;100553.44;4995731;28;109235;-74
2023/12/26 01:58:04;;;;;;;2.15;0.90;;;;;;;14.12;69.07;100563.16;4997989;28;108149;-73
2023/12/26 02:00:32;;;;;;;1.60;1.05;;;;;;;14.12;69.05;100560.50;4995234;28;124739;-74
2023/12/26 02:03:00;;;;;;;1.80;1.00;;;;;;;14.11;69.09;100554.31;5003377;28;124219;-74
2023/12/26 02:05:28;;;;;;;1.50;1.00;;;;;;;14.12;69.20;100561.34;5005484;28;109585;-74
2023/12/26 02:07:55;;;;;;;2.20;1.10;;;;;;;14.11;69.03;100559.66;5007418;28;109760;-74
2023/12/26 02:10:22;;;;;;;2.05;1.00;;;;;;;14.12;69.05;100566.66;5000840;28;123859;-74
2023/12/26 02:12:49;;;;;;;1.65;1.02;;;;;;;14.11;69.17;100549.00;5014432;28;124256;-74
2023/12/26 02:15:17;;;;;;;1.40;0.85;;;;;;;14.11;69.02;100554.31;5002731;28;109463;-74
2023/12/26 02:17:45;;;;;;;1.85;1.10;;;;;;;14.12;69.13;100556.03;5000223;28;107780;-74
2023/12/26 02:20:13;;;;;;;2.03;1.10;;;;;;;14.11;69.14;100564.97;5007635;28;124269;-75
2023/12/26 02:22:40;;;;;;;2.63;1.30;;;;;;;14.12;69.08;100565.81;5004659;28;124386;-74
2023/12/26 02:25:12;;;;;;;3.13;1.40;;;;;;;14.12;69.04;100556.03;5010574;28;108678;-74
2023/12/26 02:27:40;;;;;;;1.50;1.20;;;;;;;14.12;69.08;100566.66;5008194;28;109192;-75
2023/12/26 02:30:09;;;;;;;1.98;1.40;;;;;;;14.12;69.09;100566.66;5012638;28;124170;-74
2023/12/26 02:32:38;;;;;;;1.83;1.20;;;;;;;14.11;69.14;100575.63;5000734;28;123643;-74
2023/12/26 02:35:07;;;;;;;3.20;1.25;;;;;;;14.11;69.13;100580.09;5015004;28;109022;-74
2023/12/26 02:37:37;;;;;;;1.98;1.30;;;;;;;14.11;69.01;100574.75;5002579;28;108891;-74
2023/12/26 02:40:05;;;;;;;1.92;1.30;;;;;;;14.12;69.07;100572.00;5011438;28;123953;-74
2023/12/26 02:42:32;;;;;;;1.92;1.10;;;;;;;14.10;69.16;100573.91;5008303;28;124695;-75
2023/12/26 02:45:00;;;;;;;1.50;1.20;;;;;;;14.10;69.18;100584.56;4989708;28;108881;-74
2023/12/26 02:47:27;;;;;;;2.25;1.30;;;;;;;14.11;69.18;100580.97;5012233;28;108697;-74
2023/12/26 02:49:55;;;;;;;3.20;1.58;;;;;;;14.10;69.06;100571.25;5014793;28;123284;-74
2023/12/26 02:52:23;;;;;;;1.67;1.50;;;;;;;14.11;68.88;100574.75;5012263;28;123325;-74
2023/12/26 02:54:50;;;;;;;2.40;1.52;;;;;;;14.10;69.11;100584.56;5009112;28;109824;-74
2023/12/26 02:57:17;;;;;;;2.00;1.50;;;;;;;14.10;69.10;100587.22;4997470;28;109085;-74
2023/12/26 02:59:45;;;;;;;1.80;1.50;;;;;;;14.11;69.08;100586.28;5012632;28;124170;-74
2023/12/26 03:02:12;;;;;;;2.80;1.67;;;;;;;14.12;68.98;100597.78;5001022;28;123432;-75
2023/12/26 03:04:39;;;;;;;2.33;1.58;;;;;;;14.12;69.11;100601.28;5010767;28;108813;-74
2023/12/26 03:07:06;;;;;;;2.95;1.48;;;;;;;14.12;69.02;100601.28;5014182;28;109031;-74
2023/12/26 03:09:34;;;;;;;2.72;1.60;;;;;;;14.12;69.06;100609.28;5011636;28;123768;-75
2023/12/26 03:12:01;;;;;;;3.58;1.60;;;;;;;14.12;69.09;100606.63;5005156;28;124435;-74
2023/12/26 03:14:28;;;;;;;3.40;1.45;;;;;;;14.12;69.14;100619.09;4998867;28;109015;-74
2023/12/26 03:16:55;;;;;;;3.70;1.55;;;;;;;14.12;69.08;100627.94;5009904;28;108399;-74
2023/12/26 03:19:24;;;;;;;1.95;1.70;;;;;;;14.11;69.22;100638.66;5002599;28;124603;-75
2023/12/26 03:21:51;;;;;;;2.13;1.50;;;;;;;14.10;69.20;100643.16;5010513;28;123205;-74
2023/12/26 03:24:18;;;;;;;3.35;1.70;;;;;;;14.10;69.13;100648.47;5014389;28;110530;-75
2023/12/26 03:26:46;;;;;;;2.88;1.52;;;;;;;14.11;69.20;100644.00;5015537;28;108229;-75
2023/12/26 03:29:13;;;;;;;4.53;1.60;;;;;;;14.11;69.11;100642.22;5012709;28;123208;-75
2023/12/26 03:31:44;;;;;;;3.53;1.73;;;;;;;14.12;69.12;100651.06;5010402;28;122888;-74
2023/12/26 03:34:12;;;;;;;4.22;1.90;;;;;;;14.13;69.08;100647.44;5010643;28;108171;-75
2023/12/26 03:36:44;;;;;;;2.58;1.50;;;;;;;14.12;69.11;100646.56;5013738;28;108992;-75
2023/12/26 03:39:12;;;;;;;1.83;1.20;;;;;;;14.13;69.12;100648.28;5003158;28;124261;-74
2023/12/26 03:41:40;;;;;;;2.95;1.10;;;;;;;14.13;69.12;100648.28;5010407;28;122866;-75
2023/12/26 03:44:08;;;;;;;2.95;1.20;;;;;;;14.14;69.01;100654.47;5003792;28;110174;-74
2023/12/26 03:46:36;;;;;;;2.90;1.10;;;;;;;14.13;68.96;100653.63;5006231;28;110043;-75
2023/12/26 03:49:03;;;;;;;3.88;1.10;;;;;;;14.13;68.92;100632.31;4994663;28;123213;-75
2023/12/26 03:51:31;;;;;;;5.13;1.08;;;;;;;14.13;68.81;100642.97;4993926;28;123194;-75
2023/12/26 03:54:00;;;;;;;2.83;1.00;;;;;;;14.11;68.48;100644.88;4997396;28;109404;-75
2023/12/26 03:56:32;;;;;;;5.63;1.10;;;;;;;14.11;68.66;100652.88;4999655;28;108816;-74
2023/12/26 03:59:00;;;;;;;4.32;1.10;;;;;;;14.09;68.79;100660.09;5003251;28;123070;-74
2023/12/26 04:01:27;;;;;;;4.80;1.10;;;;;;;14.07;68.51;100654.00;4998182;28;124224;-74
2023/12/26 04:03:55;;;;;;;9.48;0.95;;;;;;;14.06;68.52;100668.28;5011457;28;108959;-74
2023/12/26 04:06:23;;;;;;;2.50;0.77;;;;;;;14.05;68.53;100671.88;5004132;28;108616;-74
2023/12/26 04:08:50;;;;;;;6.32;0.77;;;;;;;14.05;68.34;100681.66;4982813;28;123329;-74
2023/12/26 04:11:17;;;;;;;2.85;0.80;;;;;;;14.03;68.48;100673.78;4999793;28;124054;-75
2023/12/26 04:13:45;;;;;;;2.38;0.80;;;;;;;14.01;68.25;100681.00;5011815;28;108881;-74
2023/12/26 04:16:12;;;;;;;3.60;0.80;;;;;;;14.00;68.15;100687.31;5006752;28;108136;-74
2023/12/26 04:18:40;;;;;;;5.53;0.82;;;;;;;13.99;68.11;100694.44;4999209;28;124480;-74
2023/12/26 04:21:08;;;;;;;5.43;1.23;;;;;;;13.98;68.17;100697.19;5004354;28;124228;-74
2023/12/26 04:23:35;;;;;;;5.60;0.70;;;;;;;13.97;68.09;100700.78;5006104;28;109309;-74
2023/12/26 04:26:03;;;;;;;4.32;0.98;;;;;;;13.96;68.03;100699.09;4997553;28;108734;-74
2023/12/26 04:28:30;;;;;;;6.32;1.13;;;;;;;13.95;67.79;100700.03;5004075;28;123664;-74
2023/12/26 04:30:57;;;;;;;7.10;1.00;;;;;;;13.93;67.95;100704.59;4999951;28;123390;-75
2023/12/26 04:33:25;;;;;;;5.07;1.05;;;;;;;13.92;67.65;100708.19;4999140;28;110379;-74
2023/12/26 04:35:53;;;;;;;6.45;1.35;;;;;;;13.90;67.58;100723.41;5005863;28;109091;-74
2023/12/26 04:38:20;;;;;;;4.60;1.17;;;;;;;13.88;67.53;100727.97;4993727;28;124783;-74
2023/12/26 04:40:48;;;;;;;8.50;1.08;;;;;;;13.86;67.54;100713.91;5010400;28;124587;-74
2023/12/26 04:43:17;;;;;;;6.25;1.48;;;;;;;13.87;67.43;100715.63;5014147;28;109437;-75
2023/12/26 04:45:44;;;;;;;4.05;0.93;;;;;;;13.85;67.25;100729.03;5009497;28;109051;-75
2023/12/26 04:48:11;;;;;;;6.68;1.10;;;;;;;13.85;67.15;100733.50;5010993;28;122890;-75
2023/12/26 04:50:39;;;;;;;6.18;0.98;;;;;;;13.83;67.07;100742.44;5000633;28;123244;-74
2023/12/26 04:53:09;;;;;;;5.25;1.20;;;;;;;13.83;66.94;100749.56;5006021;28;109324;-74
2023/12/26 04:55:36;;;;;;;6.90;1.45;;;;;;;13.81;66.87;100739.00;5008185;28;108145;-74
2023/12/26 04:58:04;;;;;;;8.90;0.88;;;;;;;13.81;67.02;100749.66;4990769;28;126636;-74
2023/12/26 05:00:32;;;;;;;6.85;0.95;;;;;;;13.82;66.97;100750.50;4999006;28;123473;-74
2023/12/26 05:03:00;;;;;;;17.15;1.80;;;;;;;13.82;67.05;100766.47;5009833;28;108688;-74
2023/12/26 05:05:29;;;;;;;5.78;0.95;;;;;;;13.79;66.41;100761.34;4998342;28;108230;-74
2023/12/26 05:07:56;;;;;;;6.93;1.02;;;;;;;13.76;66.56;100762.38;5011558;28;123988;-74
2023/12/26 05:10:24;;;;;;;5.93;0.95;;;;;;;13.73;66.28;100783.88;5000297;28;123141;-74
2023/12/26 05:12:52;;;;;;;6.57;1.02;;;;;;;13.68;66.06;100780.63;5012842;28;109048;-74
2023/12/26 05:15:21;;;;;;;6.10;0.88;;;;;;;13.62;65.72;100775.66;4993466;28;108235;-74
2023/12/26 05:17:48;;;;;;;18.10;1.95;;;;;;;13.57;65.48;100775.91;4997684;28;124130;-74
2023/12/26 05:20:17;;;;;;;5.55;0.93;;;;;;;13.53;65.39;100794.81;5009044;28;123328;-72
2023/12/26 05:22:57;;;;;;;6.72;1.13;;;;;;;13.48;65.21;100804.88;5005216;28;109852;-73
2023/12/26 05:25:26;;;;;;;5.90;0.88;;;;;;;13.44;64.95;100802.38;5003047;28;109619;-73
2023/12/26 05:27:54;;;;;;;4.50;0.88;;;;;;;13.39;64.91;100807.13;4995366;28;123148;-73
2023/12/26 05:30:22;;;;;;;4.38;0.90;;;;;;;13.35;64.76;100802.91;4994181;28;123644;-74
2023/12/26 05:32:49;;;;;;;8.07;0.90;;;;;;;13.31;64.46;100809.34;4993272;28;109420;-74
2023/12/26 05:35:20;;;;;;;10.02;1.15;;;;;;;13.28;64.42;100808.63;5013173;28;108049;-73
2023/12/26 05:37:47;;;;;;;7.00;1.17;;;;;;;13.24;64.34;100819.47;5005389;28;124940;-74
2023/12/26 05:40:18;;;;;;;4.53;1.10;;;;;;;13.20;64.03;100827.69;5010250;28;122955;-74
2023/12/26 05:42:47;;;;;;;6.55;1.17;;;;;;;13.17;64.17;100833.19;5009569;28;108238;-73
2023/12/26 05:45:14;;;;;;;4.07;1.00;;;;;;;13.14;63.94;100849.31;4993442;28;108367;-75
2023/12/26 05:47:41;;;;;;;9.30;1.20;;;;;;;13.11;63.76;100844.16;5007339;28;123332;-73
2023/12/26 05:50:10;;;;;;;6.78;0.98;;;;;;;13.07;63.68;100845.28;5012943;28;123058;-74
2023/12/26 05:52:37;;;;;;;6.03;0.95;;;;;;;13.01;63.51;100855.28;5012607;28;108874;-74
2023/12/26 05:55:05;;;;;;;8.10;1.10;;;;;;;12.98;63.21;100859.94;5013355;28;108175;-74
2023/12/26 05:57:32;;;;;;;5.18;0.93;;;;;;;12.94;63.58;100859.25;4996190;28;123455;-73
2023/12/26 06:00:01;;;;;;;5.65;1.42;;;;;;;12.91;63.45;100870.03;5006042;28;123479;-74
2023/12/26 06:02:29;;;;;;;6.72;1.20;;;;;;;12.90;63.49;100872.78;4992414;28;109579;-74
2023/12/26 06:04:56;;;;;;;12.30;1.23;;;;;;;12.87;63.33;100873.81;4996011;28;108683;-74
2023/12/26 06:07:24;;;;;;;5.70;1.00;;;;;;;12.85;63.43;100886.34;5001925;28;124479;-74
2023/12/26 06:09:53;;;;;;;7.03;1.02;;;;;;;12.84;63.33;100879.28;4998932;28;123538;-75
2023/12/26 06:12:21;;;;;;;7.63;0.95;;;;;;;12.83;63.19;100893.53;5004327;28;108962;-74
2023/12/26 06:14:52;;;;;;;4.97;1.00;;;;;;;12.81;63.08;100890.09;5004824;28;109597;-75
2023/12/26 06:17:21;;;;;;;8.07;1.33;;;;;;;12.80;63.25;100893.69;4998890;28;123695;-74
2023/12/26 06:19:49;;;;;;;5.28;0.80;;;;;;;12.78;63.00;100900.88;4998861;28;123004;-75
2023/12/26 06:22:17;;;;;;;8.15;1.33;;;;;;;12.77;63.09;100893.84;5012371;28;108708;-75
2023/12/26 06:24:45;;;;;;;5.65;1.08;;;;;;;12.75;62.87;100890.41;4999014;28;108500;-75
2023/12/26 06:27:13;;;;;;;4.78;1.08;;;;;;;12.73;62.91;100913.56;4997285;28;124163;-74
2023/12/26 06:29:40;;;;;;;10.60;1.15;;;;;;;12.71;62.81;100918.09;5006220;28;122935;-74
2023/12/26 06:32:08;;;;;;;10.30;1.27;;;;;;;12.70;62.77;100940.31;5010266;28;108319;-74
2023/12/26 06:34:35;;;;;;;4.85;0.90;;;;;;;12.69;62.91;100943.88;5004836;28;108232;-74
2023/12/26 06:37:03;;;;;;;8.05;1.48;;;;;;;12.66;62.88;100945.78;5009285;28;123717;-74
2023/12/26 06:39:31;;;;;;;7.95;1.40;;;;;;;12.65;62.81;100959.97;5005072;28;123387;-76
2023/12/26 06:41:58;;;;;;;7.43;1.20;;;;;;;12.63;62.91;100945.91;5012137;28;108505;-75
2023/12/26 06:44:30;;;;;;;7.13;1.20;;;;;;;12.62;62.79;100949.53;4997123;28;108343;-75
2023/12/26 06:46:57;;;;;;;6.30;1.15;;;;;;;12.60;62.80;100959.38;5014180;28;123528;-75
2023/12/26 06:49:25;;;;;;;8.77;1.48;;;;;;;12.59;62.94;100955.00;5007153;28;124063;-75
2023/12/26 06:51:52;;;;;;;3.10;0.98;;;;;;;12.58;62.75;100974.53;5004264;28;108399;-75
2023/12/26 06:54:19;;;;;;;10.63;1.55;;;;;;;12.56;62.84;100976.41;5006204;28;108236;-75
2023/12/26 06:56:47;;;;;;;6.65;1.17;;;;;;;12.52;62.77;100982.81;4999357;28;124420;-75
2023/12/26 06:59:15;;;;;;;5.38;1.20;;;;;;;12.50;62.66;100992.66;5002728;28;123923;-75
2023/12/26 07:01:46;;;;;;;5.70;1.27;;;;;;;12.48;62.55;100983.06;5008139;28;109755;-75
2023/12/26 07:04:13;;;;;;;5.63;1.08;;;;;;;12.45;62.54;100989.38;4995725;28;109076;-74
2023/12/26 07:06:42;;;;;;;7.88;1.58;;;;;;;12.42;62.36;100997.50;4994647;28;123123;-74
2023/12/26 07:09:09;;;;;;;7.30;1.25;;;;;;;12.40;62.39;100992.25;4998288;28;123784;-74
2023/12/26 07:11:37;;;;;;;6.30;1.30;;;;;;;12.37;62.40;100994.22;5002927;28;109288;-74
2023/12/26 07:14:04;;;;;;;8.30;1.27;;;;;;;12.34;62.30;100991.69;5009218;28;109485;-74
2023/12/26 07:16:33;;;;;;;8.80;1.10;;;;;;;12.33;62.30;101000.63;5004738;28;125045;-75
2023/12/26 07:19:00;;;;;;;6.97;1.20;;;;;;;12.29;62.14;101009.69;4998793;28;124148;-75
2023/12/26 07:21:28;;;;;;;5.90;0.85;;;;;;;12.27;62.13;101018.56;5008329;28;109193;-74
2023/12/26 07:23:55;;;;;;;5.63;0.95;;;;;;;12.24;62.16;101029.38;5001188;28;108634;-74
2023/12/26 07:26:22;;;;;;;4.65;1.30;;;;;;;12.21;62.19;101044.59;4998905;28;123295;-74
2023/12/26 07:28:50;;;;;;;7.43;1.17;;;;;;;12.18;62.16;101039.41;5000430;28;124289;-74
2023/12/26 07:31:20;;;;;;;4.22;1.00;;;;;;;12.14;62.21;101051.97;4996110;28;110059;-74
2023/12/26 07:33:49;;;;;;;7.30;1.13;;;;;;;12.12;62.18;101051.19;4992709;28;108195;-74
2023/12/26 07:36:17;;;;;;;8.20;0.90;;;;;;;12.09;62.28;101061.94;5005149;28;124263;-75
2023/12/26 07:38:44;;;;;;;7.53;1.17;;;;;;;12.07;62.38;101058.50;4999703;28;123750;-74
2023/12/26 07:41:12;;;;;;;1.65;0.60;;;;;;;12.04;62.39;101069.28;5012140;28;109017;-74
2023/12/26 07:43:39;;;;;;;5.97;0.80;;;;;;;12.00;62.36;101068.56;5009595;28;109133;-74
2023/12/26 07:46:06;;;;;;;3.42;0.80;;;;;;;11.99;62.47;101072.16;4999938;28;125099;-74
2023/12/26 07:48:33;;;;;;;5.63;0.90;;;;;;;11.96;62.46;101071.44;5007008;28;123026;-74
2023/12/26 07:51:02;;;;;;;3.55;0.73;;;;;;;11.94;62.48;101068.00;5000993;28;109986;-74
2023/12/26 07:53:29;;;;;;;5.65;1.08;;;;;;;11.91;62.41;101073.47;5002735;28;109651;-74
2023/12/26 07:55:56;;;;;;;3.40;1.25;;;;;;;11.87;62.46;101078.88;5011365;28;124022;-74
2023/12/26 07:58:24;;;;;;;6.05;1.10;;;;;;;11.86;62.39;101070.97;5009379;28;123780;-74
2023/12/26 08:00:56;;;;;;;4.38;0.93;;;;;;;11.84;62.69;101084.31;5009775;28;108556;-74
2023/12/26 08:03:23;;;;;;;2.42;0.68;;;;;;;11.83;62.52;101087.91;5022049;28;108708;-75
2023/12/26 08:05:51;;;;;;;4.43;0.98;;;;;;;11.82;62.76;101094.13;5006103;28;123957;-75
2023/12/26 08:08:19;;;;;;;1.58;0.63;;;;;;;11.83;62.66;101103.84;5002834;28;123826;-74
2023/12/26 08:10:47;;;;;;;4.20;0.77;;;;;;;11.83;62.61;101118.91;5008646;28;109028;-74
2023/12/26 08:13:14;;;;;;;3.50;0.68;;;;;;;11.83;63.05;101119.75;5009708;28;108713;-75
2023/12/26 08:15:42;;;;;;;3.53;0.82;;;;;;;11.84;62.76;101126.78;5007045;28;123983;-75
2023/12/26 08:18:09;;;;;;;2.55;0.80;;;;;;;11.86;62.78;101134.66;5000474;28;124292;-75
2023/12/26 08:20:37;;;;;;;6.65;1.00;;;;;;;11.86;63.03;101135.53;5004930;28;108959;-75
2023/12/26 08:23:07;;;;;;;4.78;0.88;;;;;;;11.87;62.72;101131.94;5027223;28;108813;-75
2023/12/26 08:25:34;;;;;;;5.22;0.90;;;;;;;11.88;62.75;101139.00;5008318;28;124459;-75
2023/12/26 08:28:04;;;;;;;3.78;0.80;;;;;;;11.88;62.88;101128.38;5003976;28;124013;-75
2023/12/26 08:30:31;;;;;;;3.50;0.60;;;;;;;11.90;62.83;101130.13;5001644;28;109738;-74
2023/12/26 08:33:04;;;;;;;3.00;0.90;;;;;;;11.90;62.91;101135.44;5005606;28;109145;-74
2023/12/26 08:35:32;;;;;;;6.20;1.17;;;;;;;11.91;62.85;101145.13;5006731;28;123971;-74
2023/12/26 08:37:59;;;;;;;2.83;0.95;;;;;;;11.92;62.96;101147.69;5010065;28;124056;-75
2023/12/26 08:40:26;;;;;;;4.28;0.75;;;;;;;11.93;62.95;101144.09;5020987;28;109127;-74
2023/12/26 08:42:53;;;;;;;8.48;1.45;;;;;;;11.94;62.90;101142.31;4999673;28;109851;-74
2023/12/26 08:45:22;;;;;;;2.83;0.90;;;;;;;11.95;63.08;101152.00;5021282;28;123709;-74
2023/12/26 08:47:52;;;;;;;7.32;1.05;;;;;;;11.96;63.11;101156.38;5002550;28;123523;-74
2023/12/26 08:50:20;;;;;;;2.65;0.80;;;;;;;11.97;63.00;101168.72;5008964;28;109145;-75
2023/12/26 08:52:47;;;;;;;6.13;1.20;;;;;;;12.00;63.00;101173.91;5006749;28;108850;-74
2023/12/26 08:55:15;;;;;;;3.28;1.10;;;;;;;12.01;62.95;101175.59;5001790;28;124320;-74
2023/12/26 08:57:42;;;;;;;6.88;1.15;;;;;;;12.02;63.18;101183.50;5004260;28;124212;-75
2023/12/26 09:00:13;;;;;;;5.85;1.33;;;;;;;12.05;63.12;101187.81;5008479;28;109517;-74
2023/12/26 09:02:45;;;;;;;3.83;1.02;;;;;;;12.10;63.07;101192.91;5002879;28;109220;-75
2023/12/26 09:05:32;;;;;;;5.63;1.08;;;;;;;12.13;63.12;101201.63;4992348;28;124115;-73
2023/12/26 09:07:59;;;;;;;4.20;0.88;;;;;;;12.16;63.14;101206.75;4992121;28;124244;-72
2023/12/26 09:10:27;;;;;;;3.75;1.00;;;;;;;12.19;63.19;101217.25;5010267;28;108673;-73
2023/12/26 09:12:54;;;;;;;5.97;0.93;;;;;;;12.22;63.31;101217.13;5001356;28;108871;-74
2023/12/26 09:15:24;;;;;;;4.90;0.90;;;;;;;12.25;63.11;101216.97;5004878;28;124640;-73
2023/12/26 09:17:55;;;;;;;5.93;0.90;;;;;;;12.29;63.11;101224.81;5006837;28;123901;-73
2023/12/26 09:20:22;;;;;;;6.13;1.08;;;;;;;12.31;63.13;101222.94;5008950;28;109517;-73
2023/12/26 09:22:52;;;;;;;4.03;1.17;;;;;;;12.35;63.13;101227.16;5003038;28;109075;-72
2023/12/26 09:25:22;;;;;;;6.30;1.00;;;;;;;12.35;63.03;101216.53;4988515;28;123633;-73
2023/12/26 09:27:50;;;;;;;4.18;0.90;;;;;;;12.38;62.91;101232.34;4998315;28;123978;-73
2023/12/26 09:30:20;;;;;;;8.07;1.10;;;;;;;12.39;62.96;101239.38;5008316;28;110009;-73
2023/12/26 09:36:25;;;;;;;3.28;0.98;;;;;;;12.35;63.00;101251.91;5001044;28;98771;-73
2023/12/26 09:38:53;;;;;;;4.43;1.05;;;;;;;12.34;62.87;101257.31;5006869;28;124191;-72
2023/12/26 09:41:26;;;;;;;8.10;1.20;;;;;;;12.32;63.12;101251.19;5010453;28;109659;-73
2023/12/26 09:43:53;;;;;;;3.75;1.05;;;;;;;12.32;62.96;101275.09;5010877;28;109381;-73
2023/12/26 09:46:20;;;;;;;6.07;1.20;;;;;;;12.30;62.83;101276.97;4979348;28;123823;-73
2023/12/26 09:48:48;;;;;;;4.88;1.10;;;;;;;12.29;62.72;101280.56;5011100;28;124527;-73
2023/12/26 09:51:22;;;;;;;6.25;1.30;;;;;;;12.28;62.67;101290.31;5010573;28;109197;-73
2023/12/26 09:53:59;;;;;;;8.40;1.27;;;;;;;12.26;62.75;101303.69;4995044;28;108265;-72
2023/12/26 09:56:28;;;;;;;9.75;1.00;;;;;;;12.25;62.75;101312.56;5010101;28;123928;-72
2023/12/26 09:58:56;;;;;;;3.15;0.85;;;;;;;12.23;62.82;101314.44;4993103;28;123726;-72
2023/12/26 10:01:24;;;;;;;6.82;1.23;;;;;;;12.22;62.83;101315.38;4988231;28;109037;-72
2023/12/26 10:03:52;;;;;;;3.28;1.02;;;;;;;12.21;62.76;101305.69;5011991;28;108608;-72
2023/12/26 10:06:21;;;;;;;4.15;1.00;;;;;;;12.21;62.77;101308.34;5014539;28;123081;-72
2023/12/26 10:08:52;;;;;;;3.65;1.05;;;;;;;12.24;62.82;101321.50;5014812;28;123663;-72
2023/12/26 10:11:21;;;;;;;5.57;1.13;;;;;;;12.26;62.89;101324.94;5013663;28;109719;-71
2023/12/26 10:13:52;;;;;;;5.22;1.10;;;;;;;12.28;62.96;101338.13;4995565;28;108415;-71
2023/12/26 10:16:20;;;;;;;5.55;1.30;;;;;;;12.33;62.88;101340.59;4997872;28;123455;-71
2023/12/26 10:18:48;;;;;;;6.95;0.90;;;;;;;12.35;62.90;101354.66;5009093;28;123768;-71
2023/12/26 10:21:15;;;;;;;4.53;0.93;;;;;;;12.39;62.83;101356.25;5003419;28;110926;-71
2023/12/26 10:23:44;;;;;;;11.80;1.23;;;;;;;12.43;62.94;101352.50;4995195;28;107676;-71
2023/12/26 10:26:11;;;;;;;6.40;0.85;;;;;;;12.46;62.84;101353.25;5010342;28;124220;-71
2023/12/26 10:28:41;;;;;;;10.73;1.23;;;;;;;12.52;62.79;101352.09;5010768;28;123686;-71
2023/12/26 10:31:13;;;;;;;2.85;0.95;;;;;;;12.55;62.68;101349.31;5012274;28;108886;-71
2023/12/26 10:33:42;;;;;;;2.58;0.80;;;;;;;12.58;62.78;101357.16;5002837;28;109486;-71
2023/12/26 10:36:10;;;;;;;4.45;1.10;;;;;;;12.64;62.85;101356.88;5001270;28;123855;-71
2023/12/26 10:38:42;;;;;;;7.65;1.20;;;;;;;12.70;62.70;101360.19;4995290;28;123752;-71
2023/12/26 10:41:23;;;;;;;8.98;0.95;;;;;;;12.74;62.71;101351.16;4993327;28;109309;-71
2023/12/26 10:43:56;;;;;;;6.47;1.08;;;;;;;12.79;62.59;101349.13;5001747;28;108446;-71
2023/12/26 10:46:24;;;;;;;5.85;1.15;;;;;;;12.83;62.68;101356.03;4989000;28;123197;-71
2023/12/26 10:48:56;;;;;;;7.80;1.02;;;;;;;12.86;62.54;101342.59;5010668;28;122965;-71
2023/12/26 10:51:27;;;;;;;6.78;1.10;;;;;;;12.89;62.59;101339.78;5004768;28;109140;-71
2023/12/26 10:54:09;;;;;;;6.10;1.00;;;;;;;12.91;62.38;101353.88;5009325;28;109176;-71
2023/12/26 10:56:39;;;;;;;5.72;0.90;;;;;;;12.96;62.47;101362.50;5015096;28;123841;-71
2023/12/26 10:59:08;;;;;;;4.40;0.80;;;;;;;12.99;62.36;101367.66;5014173;28;123047;-71
2023/12/26 11:01:36;;;;;;;9.18;1.20;;;;;;;13.03;62.38;101353.31;4998345;28;109596;-71
2023/12/26 11:04:03;;;;;;;5.95;1.10;;;;;;;13.10;62.39;101358.34;4990534;28;108089;-71
2023/12/26 11:06:31;;;;;;;3.67;0.80;;;;;;;13.14;62.57;101373.22;5006479;28;124280;-71
2023/12/26 11:08:58;;;;;;;7.75;1.38;;;;;;;13.19;62.35;101363.22;5011766;28;125459;-71
2023/12/26 11:11:25;;;;;;;4.57;1.10;;;;;;;13.21;62.38;101378.16;5001464;28;109169;-71
2023/12/26 11:13:55;;;;;;;3.80;0.88;;;;;;;13.24;62.08;101361.19;5007622;28;110311;-72
2023/12/26 11:16:22;;;;;;;3.95;1.00;;;;;;;13.26;62.17;101372.66;5005519;28;124971;-73
2023/12/26 11:18:51;;;;;;;5.75;0.75;;;;;;;13.27;62.00;101370.84;4977125;28;122297;-72
2023/12/26 11:21:18;;;;;;;9.50;1.40;;;;;;;13.27;62.08;101374.34;4997760;28;108915;-73
2023/12/26 11:23:48;;;;;;;3.92;1.13;;;;;;;13.29;62.02;101391.09;5006692;28;109941;-73
2023/12/26 11:26:16;;;;;;;3.75;1.00;;;;;;;13.31;62.02;101393.72;4992698;28;124298;-72